Time;durP1;ratioP1;P1;durP2;ratioP2;P2;SDS_P1;SDS_P2;PMS_P1;PMS_P2;Temp;Humidity;BMP_temperature;BMP_pressure;BME280_temperature;BME280_humidity;BME280_pressure;Samples;Min_cycle;Max_cycle;Signal;HPM_P1;HPM_P2
2024/03/31 00:00:48;;;;;;;3.55;3.25;;;;;;;6.86;64.31;98298.75;5003172;28;20387;-42
2024/03/31 00:03:14;;;;;;;2.78;1.40;;;;;;;6.84;64.20;98290.22;4991960;28;20050;-43
2024/03/31 00:05:39;;;;;;;5.22;3.35;;;;;;;6.77;65.84;98292.03;4988337;28;20129;-44
2024/03/31 00:08:05;;;;;;;6.78;2.03;;;;;;;6.69;66.71;98296.47;4999713;28;20153;-41
2024/03/31 00:10:31;;;;;;;4.60;1.63;;;;;;;6.63;65.45;98302.53;4994731;28;20101;-43
2024/03/31 00:12:57;;;;;;;3.15;2.75;;;;;;;6.55;66.59;98299.19;4995969;28;20049;-42
2024/03/31 00:15:24;;;;;;;5.13;1.77;;;;;;;6.56;66.14;98295.78;4987672;28;20554;-42
2024/03/31 00:17:51;;;;;;;6.10;2.40;;;;;;;6.56;66.07;98295.78;4987327;28;20054;-41
2024/03/31 00:20:17;;;;;;;5.30;2.25;;;;;;;6.60;66.81;98297.44;4992403;28;20058;-41
2024/03/31 00:22:42;;;;;;;7.13;1.67;;;;;;;6.59;65.15;98300.88;4992096;28;20593;-40
2024/03/31 00:25:08;;;;;;;5.53;3.30;;;;;;;6.58;67.01;98294.03;4990450;28;20050;-43
2024/03/31 00:27:34;;;;;;;5.60;3.60;;;;;;;6.57;66.84;98300.03;4997469;28;20054;-44
2024/03/31 00:29:59;;;;;;;5.20;1.58;;;;;;;6.53;66.44;98298.38;4990934;28;20046;-41
2024/03/31 00:32:25;;;;;;;4.40;3.83;;;;;;;6.49;68.08;98304.44;5000168;28;20426;-41
2024/03/31 00:34:51;;;;;;;8.43;3.53;;;;;;;6.51;66.36;98293.25;5000323;28;20054;-41
2024/03/31 00:37:16;;;;;;;9.43;2.10;;;;;;;6.51;67.93;98295.84;4994804;28;20054;-41
2024/03/31 00:39:42;;;;;;;8.18;3.63;;;;;;;6.52;66.70;98301.84;5001494;28;20426;-45
2024/03/31 00:42:09;;;;;;;4.20;1.98;;;;;;;6.52;66.81;98302.69;4998347;28;20110;-44
2024/03/31 00:44:35;;;;;;;7.15;3.53;;;;;;;6.51;67.12;98290.69;4996204;28;20058;-41
2024/03/31 00:47:01;;;;;;;4.68;2.30;;;;;;;6.49;67.14;98289.03;4995601;28;20119;-42
2024/03/31 00:49:26;;;;;;;7.43;4.03;;;;;;;6.46;68.54;98289.06;4993974;28;20062;-39
2024/03/31 00:51:52;;;;;;;8.32;4.85;;;;;;;6.45;67.72;98297.66;4997841;28;20045;-42
2024/03/31 00:54:18;;;;;;;8.75;2.40;;;;;;;6.45;68.14;98287.38;4992221;28;20097;-42
2024/03/31 00:56:43;;;;;;;4.75;2.33;;;;;;;6.42;66.99;98283.94;5004572;28;20061;-42
2024/03/31 00:59:09;;;;;;;5.18;2.53;;;;;;;6.43;67.52;98280.50;5005487;28;20065;-42
2024/03/31 01:01:35;;;;;;;7.25;2.85;;;;;;;6.45;66.47;98285.63;4994729;28;20061;-41
2024/03/31 01:04:00;;;;;;;8.00;2.90;;;;;;;6.43;67.11;98280.50;4995426;28;20037;-42
2024/03/31 01:06:26;;;;;;;6.50;2.13;;;;;;;6.41;66.45;98277.13;4998584;28;20046;-42
2024/03/31 01:08:53;;;;;;;5.72;2.03;;;;;;;6.38;66.26;98277.16;4998595;28;20147;-40
2024/03/31 01:11:20;;;;;;;6.57;2.65;;;;;;;6.34;66.71;98270.34;4996681;28;20066;-41
2024/03/31 01:13:48;;;;;;;7.30;3.03;;;;;;;6.31;67.84;98278.13;4983617;28;20458;-41
2024/03/31 01:16:14;;;;;;;10.20;4.85;;;;;;;6.28;68.02;98278.16;4984791;28;20050;-40
2024/03/31 01:18:40;;;;;;;8.00;3.22;;;;;;;6.27;66.71;98276.44;4996562;28;20104;-43
2024/03/31 01:21:08;;;;;;;6.43;2.97;;;;;;;6.26;67.06;98272.19;4991290;28;20507;-42
2024/03/31 01:23:56;;;;;;;9.25;4.65;;;;;;;6.20;67.18;98272.25;4999405;28;20112;-41
2024/03/31 01:26:21;;;;;;;9.18;4.20;;;;;;;6.21;66.69;98274.00;4987013;28;20050;-42
2024/03/31 01:28:47;;;;;;;7.50;3.97;;;;;;;6.17;68.32;98271.44;4996024;28;20848;-43
2024/03/31 01:31:13;;;;;;;6.90;4.35;;;;;;;6.14;67.45;98262.91;5001352;28;20049;-41
2024/03/31 01:33:38;;;;;;;7.00;4.95;;;;;;;6.12;67.73;98260.34;4997541;28;20170;-42
2024/03/31 01:36:04;;;;;;;10.23;3.13;;;;;;;6.08;66.74;98266.41;5001361;28;20056;-41
2024/03/31 01:38:30;;;;;;;7.53;2.60;;;;;;;6.06;68.28;98264.75;5005237;28;20065;-40
2024/03/31 01:40:56;;;;;;;7.35;3.50;;;;;;;6.02;66.87;98263.91;4999885;28;20131;-42
2024/03/31 01:43:21;;;;;;;7.55;3.17;;;;;;;5.99;67.30;98264.81;4991088;28;20471;-42
2024/03/31 01:45:47;;;;;;;7.72;3.38;;;;;;;5.98;67.05;98264.81;5001015;28;20637;-41
2024/03/31 01:48:14;;;;;;;7.50;4.38;;;;;;;5.96;67.12;98269.13;4991166;28;20396;-43
2024/03/31 01:50:39;;;;;;;7.53;3.03;;;;;;;5.92;67.40;98266.59;4999228;28;20649;-40
2024/03/31 01:53:05;;;;;;;8.38;2.83;;;;;;;5.90;68.07;98263.19;4990012;28;20042;-41
2024/03/31 01:55:31;;;;;;;6.40;2.97;;;;;;;5.88;67.09;98262.34;5004462;28;20045;-44
2024/03/31 01:57:56;;;;;;;10.40;3.17;;;;;;;5.86;67.00;98264.09;5002083;28;20494;-40
2024/03/31 02:00:22;;;;;;;12.32;5.13;;;;;;;5.82;67.86;98257.31;5001956;28;20053;-42
2024/03/31 02:02:48;;;;;;;8.18;3.03;;;;;;;5.80;68.08;98259.03;4995963;28;20057;-41
2024/03/31 02:05:14;;;;;;;6.78;3.25;;;;;;;5.79;68.19;98259.91;4992044;28;20060;-42
2024/03/31 02:07:39;;;;;;;8.02;2.92;;;;;;;5.77;67.28;98256.50;4995231;28;20046;-42
2024/03/31 02:10:06;;;;;;;6.60;2.70;;;;;;;5.77;67.82;98253.91;4986156;28;20050;-42
2024/03/31 02:12:33;;;;;;;5.03;2.15;;;;;;;5.74;67.10;98253.97;4996231;28;20108;-43
2024/03/31 02:14:59;;;;;;;4.55;2.40;;;;;;;5.74;67.21;98254.81;4982782;28;20046;-43
2024/03/31 02:17:24;;;;;;;9.80;4.38;;;;;;;5.74;67.34;98253.97;4993864;28;20435;-43
2024/03/31 02:19:50;;;;;;;3.50;2.03;;;;;;;5.72;67.24;98246.28;4994208;28;20046;-41
2024/03/31 02:22:17;;;;;;;7.05;2.75;;;;;;;5.72;68.39;98250.56;4995076;28;20503;-41
2024/03/31 02:24:44;;;;;;;4.22;2.13;;;;;;;5.69;68.93;98248.03;4998740;28;20395;-41
2024/03/31 02:27:09;;;;;;;6.63;2.22;;;;;;;5.66;67.49;98257.50;4995416;28;20097;-41
2024/03/31 02:29:35;;;;;;;11.40;2.65;;;;;;;5.64;67.33;98254.06;5002731;28;20062;-40
2024/03/31 02:32:01;;;;;;;6.13;2.42;;;;;;;5.62;67.69;98257.53;4996442;28;20054;-45
2024/03/31 02:34:26;;;;;;;5.45;2.30;;;;;;;5.59;67.97;98250.72;5000563;28;20049;-40
2024/03/31 02:36:52;;;;;;;5.45;2.40;;;;;;;5.57;68.45;98257.56;4999219;28;20586;-41
2024/03/31 02:39:18;;;;;;;6.30;3.60;;;;;;;5.52;67.63;98249.94;4999784;28;20054;-42
2024/03/31 02:41:43;;;;;;;7.82;2.40;;;;;;;5.50;67.82;98245.66;4997420;28;20058;-41
2024/03/31 02:44:09;;;;;;;6.95;3.75;;;;;;;5.48;67.79;98247.41;4999439;28;20111;-42
2024/03/31 02:46:35;;;;;;;10.45;2.53;;;;;;;5.46;67.77;98249.13;4996903;28;20418;-41
2024/03/31 02:49:00;;;;;;;5.88;2.30;;;;;;;5.46;67.98;98238.88;4995358;28;20042;-41
2024/03/31 02:51:26;;;;;;;4.10;2.10;;;;;;;5.45;68.54;98242.31;4997859;28;20053;-41
2024/03/31 02:53:52;;;;;;;5.97;2.05;;;;;;;5.43;68.50;98236.34;4994005;28;20064;-42
2024/03/31 02:56:17;;;;;;;9.48;4.15;;;;;;;5.40;67.47;98232.94;5001084;28;20415;-42
2024/03/31 02:58:43;;;;;;;9.45;2.47;;;;;;;5.38;68.09;98226.97;5000705;28;20042;-50
2024/03/31 03:01:08;;;;;;;4.65;2.22;;;;;;;5.36;68.77;98228.72;4993720;28;20133;-40
2024/03/31 03:03:34;;;;;;;9.55;2.45;;;;;;;5.34;68.90;98230.44;4999338;28;20065;-40
2024/03/31 03:06:00;;;;;;;10.48;2.15;;;;;;;5.32;68.37;98232.19;4985437;28;20053;-43
2024/03/31 03:08:25;;;;;;;5.38;2.35;;;;;;;5.31;68.73;98230.50;4992444;28;20066;-43
2024/03/31 03:10:54;;;;;;;6.13;3.25;;;;;;;5.29;68.50;98227.06;4992308;28;20049;-42
2024/03/31 03:13:20;;;;;;;4.40;1.70;;;;;;;5.28;68.75;98221.06;4967774;28;20060;-41
2024/03/31 03:15:46;;;;;;;6.93;3.88;;;;;;;5.26;68.04;98217.69;4985314;28;20415;-42
2024/03/31 03:18:14;;;;;;;10.07;2.13;;;;;;;5.26;68.96;98221.97;4985701;28;20057;-40
2024/03/31 03:20:40;;;;;;;11.95;2.47;;;;;;;5.24;69.04;98221.97;4993829;28;20058;-41
2024/03/31 03:23:06;;;;;;;9.02;2.38;;;;;;;5.23;67.97;98224.56;4985145;28;20467;-41
2024/03/31 03:25:32;;;;;;;5.82;2.15;;;;;;;5.20;68.97;98232.31;4996081;28;20057;-40
2024/03/31 03:27:57;;;;;;;6.10;1.60;;;;;;;5.16;67.96;98236.63;5000916;28;20591;-41
2024/03/31 03:30:23;;;;;;;5.00;1.77;;;;;;;5.14;67.85;98238.34;4995744;28;20043;-42
2024/03/31 03:32:52;;;;;;;5.88;2.47;;;;;;;5.11;68.91;98241.81;4972068;28;20053;-40
2024/03/31 03:35:19;;;;;;;5.72;3.85;;;;;;;5.07;68.86;98242.69;4980053;28;20085;-41
2024/03/31 03:37:45;;;;;;;7.10;2.53;;;;;;;5.02;68.62;98239.31;4986159;28;20053;-41
2024/03/31 03:40:12;;;;;;;13.30;2.78;;;;;;;4.98;68.96;98237.66;4980062;28;20104;-40
2024/03/31 03:42:38;;;;;;;5.60;2.55;;;;;;;4.95;68.75;98227.41;4981619;28;20077;-41
2024/03/31 03:45:05;;;;;;;8.80;2.60;;;;;;;4.92;68.23;98238.56;4996949;28;20038;-40
2024/03/31 03:47:30;;;;;;;10.60;2.45;;;;;;;4.89;68.72;98236.88;4987109;28;20054;-42
2024/03/31 03:49:56;;;;;;;9.27;2.75;;;;;;;4.87;68.49;98241.16;5001140;28;20049;-43
2024/03/31 03:52:22;;;;;;;6.45;1.90;;;;;;;4.85;68.51;98234.34;4989697;28;20049;-42
2024/03/31 03:54:48;;;;;;;9.35;2.28;;;;;;;4.83;68.50;98234.34;4994535;28;20974;-43
2024/03/31 03:57:13;;;;;;;7.30;2.75;;;;;;;4.80;68.69;98231.81;4986033;28;20038;-41
2024/03/31 03:59:39;;;;;;;7.55;3.50;;;;;;;4.78;69.23;98235.25;4996012;28;20046;-40
2024/03/31 04:02:04;;;;;;;6.10;2.35;;;;;;;4.74;68.55;98230.16;4990455;28;20072;-42
2024/03/31 04:04:30;;;;;;;5.68;2.33;;;;;;;4.71;69.12;98234.44;4998090;28;20054;-41
2024/03/31 04:06:56;;;;;;;7.85;2.28;;;;;;;4.68;68.61;98244.72;4997025;28;20042;-40
2024/03/31 04:09:23;;;;;;;5.68;3.30;;;;;;;4.66;69.14;98236.22;4984222;28;20055;-41
2024/03/31 04:11:48;;;;;;;4.28;2.05;;;;;;;4.63;69.01;98237.94;4993702;28;20057;-43
2024/03/31 04:14:14;;;;;;;5.38;2.35;;;;;;;4.60;68.81;98232.81;4997115;28;20140;-42
2024/03/31 04:16:40;;;;;;;5.82;2.20;;;;;;;4.58;68.73;98239.69;4995021;28;20513;-40
2024/03/31 04:19:06;;;;;;;6.47;2.22;;;;;;;4.59;69.21;98235.41;4990473;28;20081;-40
2024/03/31 04:21:31;;;;;;;5.10;2.30;;;;;;;4.60;69.24;98237.94;4972438;28;20054;-43
2024/03/31 04:23:57;;;;;;;4.70;3.17;;;;;;;4.63;68.95;98230.22;4993851;28;20053;-43
2024/03/31 04:26:25;;;;;;;7.20;4.57;;;;;;;4.66;68.56;98233.66;4995119;28;20423;-42
2024/03/31 04:28:52;;;;;;;10.20;4.70;;;;;;;4.70;68.93;98232.75;5003496;28;20061;-43
2024/03/31 04:31:18;;;;;;;7.63;4.70;;;;;;;4.76;68.62;98235.25;5000411;28;20544;-43
2024/03/31 04:33:44;;;;;;;11.00;2.90;;;;;;;4.80;68.84;98238.66;5001585;28;20450;-41
2024/03/31 04:36:11;;;;;;;9.48;4.13;;;;;;;4.83;68.83;98229.22;4992992;28;20057;-41
2024/03/31 04:38:37;;;;;;;10.23;2.78;;;;;;;4.90;68.77;98227.47;4994979;28;20054;-43
2024/03/31 04:41:03;;;;;;;8.70;3.28;;;;;;;4.94;69.81;98226.56;4990905;28;20054;-43
2024/03/31 04:43:28;;;;;;;11.10;4.97;;;;;;;4.99;69.13;98226.50;4997279;28;20045;-42
2024/03/31 04:46:04;;;;;;;5.47;2.63;;;;;;;5.02;69.62;98218.78;4988990;28;20714;-41
2024/03/31 04:48:31;;;;;;;7.97;2.95;;;;;;;5.05;69.73;98217.91;4996199;28;20050;-40
2024/03/31 04:50:56;;;;;;;11.40;5.22;;;;;;;5.07;69.79;98217.00;4998774;28;20049;-42
2024/03/31 04:53:22;;;;;;;9.52;3.67;;;;;;;5.10;69.63;98214.44;4999203;28;20062;-41
2024/03/31 04:55:47;;;;;;;10.27;3.42;;;;;;;5.13;70.12;98210.97;4997641;28;20411;-42
2024/03/31 04:58:13;;;;;;;6.60;4.90;;;;;;;5.15;70.18;98211.81;4995818;28;20065;-42
2024/03/31 05:00:39;;;;;;;10.18;5.80;;;;;;;5.18;70.20;98210.94;4994627;28;20062;-40
2024/03/31 05:03:05;;;;;;;12.43;5.63;;;;;;;5.21;69.36;98213.47;5001635;28;20092;-43
2024/03/31 05:05:35;;;;;;;12.50;3.78;;;;;;;5.23;69.26;98201.47;4987188;28;20507;-40
2024/03/31 05:08:02;;;;;;;11.40;3.90;;;;;;;5.26;70.19;98206.56;5001023;28;20054;-39
2024/03/31 05:10:28;;;;;;;8.88;3.40;;;;;;;5.30;69.71;98205.66;4985414;28;20054;-39
2024/03/31 05:12:56;;;;;;;10.15;5.18;;;;;;;5.32;69.95;98208.22;4996973;28;20130;-40
2024/03/31 05:15:22;;;;;;;16.10;6.38;;;;;;;5.32;69.92;98211.66;4990303;28;20058;-41
2024/03/31 05:17:48;;;;;;;10.52;3.83;;;;;;;5.35;70.23;98215.88;4983175;28;20065;-41
2024/03/31 05:20:13;;;;;;;12.30;4.68;;;;;;;5.38;71.01;98221.00;4992492;28;20058;-41
2024/03/31 05:22:39;;;;;;;18.30;4.55;;;;;;;5.38;71.04;98221.81;4996928;28;20126;-41
2024/03/31 05:25:05;;;;;;;11.77;5.43;;;;;;;5.40;69.95;98212.41;4989668;28;20042;-41
2024/03/31 05:27:30;;;;;;;17.35;6.47;;;;;;;5.42;71.27;98216.66;4982862;28;20050;-42
2024/03/31 05:29:56;;;;;;;19.42;5.75;;;;;;;5.43;71.09;98215.81;4995551;28;20053;-40
2024/03/31 05:32:21;;;;;;;11.88;4.45;;;;;;;5.46;70.19;98226.03;5005957;28;20085;-40
2024/03/31 05:34:47;;;;;;;14.57;6.65;;;;;;;5.47;70.85;98214.91;4992568;28;20034;-41
2024/03/31 05:37:13;;;;;;;29.98;5.18;;;;;;;5.49;71.13;98214.03;5001359;28;20112;-41
2024/03/31 05:39:38;;;;;;;15.57;5.35;;;;;;;5.51;70.37;98217.41;4995324;28;20124;-45
2024/03/31 05:42:04;;;;;;;32.63;7.05;;;;;;;5.53;71.53;98227.66;4987070;28;20056;-39
2024/03/31 05:44:30;;;;;;;26.33;4.85;;;;;;;5.55;72.07;98223.38;4998725;28;20081;-48
2024/03/31 05:46:55;;;;;;;26.75;6.78;;;;;;;5.55;71.97;98223.38;5001537;28;20093;-41
2024/03/31 05:49:21;;;;;;;42.38;6.97;;;;;;;5.57;70.95;98219.06;4996670;28;20140;-43
2024/03/31 05:51:47;;;;;;;39.95;7.80;;;;;;;5.58;72.65;98217.34;4987762;28;20084;-43
2024/03/31 05:54:14;;;;;;;41.45;7.57;;;;;;;5.61;71.49;98223.28;4992829;28;20514;-41
2024/03/31 05:56:40;;;;;;;74.28;6.68;;;;;;;5.61;71.65;98215.56;4994069;28;20115;-42
2024/03/31 05:59:05;;;;;;;21.17;5.65;;;;;;;5.63;73.20;98221.56;4996487;28;20053;-42
2024/03/31 06:01:31;;;;;;;29.52;5.95;;;;;;;5.66;72.15;98218.09;4990040;28;20469;-43
2024/03/31 06:03:57;;;;;;;29.73;7.50;;;;;;;5.70;72.18;98224.03;4998178;28;20053;-41
2024/03/31 06:06:22;;;;;;;26.83;7.63;;;;;;;5.72;72.73;98219.75;4993670;28;20042;-46
2024/03/31 06:08:48;;;;;;;46.50;8.27;;;;;;;5.75;72.57;98217.13;5000164;28;20092;-40
2024/03/31 06:11:15;;;;;;;50.92;8.88;;;;;;;5.76;73.08;98219.69;4993454;28;20045;-41
2024/03/31 06:13:40;;;;;;;30.20;5.65;;;;;;;5.79;74.26;98221.38;4991268;28;20734;-40
2024/03/31 06:16:06;;;;;;;38.50;5.95;;;;;;;5.82;74.31;98218.75;5001350;28;20100;-42
2024/03/31 06:18:32;;;;;;;39.92;6.80;;;;;;;5.84;74.63;98224.72;4998197;28;20511;-42
2024/03/31 06:20:57;;;;;;;32.80;7.95;;;;;;;5.88;73.17;98215.28;4991493;28;20133;-41
2024/03/31 06:23:23;;;;;;;46.88;7.32;;;;;;;5.92;73.44;98222.06;4996727;28;20062;-40
2024/03/31 06:25:57;;;;;;;30.05;6.22;;;;;;;5.94;74.29;98211.78;4997200;28;20049;-40
2024/03/31 06:28:22;;;;;;;24.77;6.25;;;;;;;5.97;73.81;98220.28;4975519;28;20059;-41
2024/03/31 06:30:48;;;;;;;37.63;6.95;;;;;;;5.99;75.34;98215.13;4992559;28;20045;-41
2024/03/31 06:33:14;;;;;;;19.80;5.68;;;;;;;5.98;75.37;98216.81;4998430;28;20454;-42
2024/03/31 06:35:40;;;;;;;27.08;8.77;;;;;;;6.02;75.44;98215.91;4994329;28;20053;-42
2024/03/31 06:38:06;;;;;;;27.58;6.05;;;;;;;6.06;75.39;98214.19;5001119;28;20481;-40
2024/03/31 06:40:33;;;;;;;19.15;5.25;;;;;;;6.08;75.19;98217.56;4998154;28;20145;-41
2024/03/31 06:42:59;;;;;;;13.68;4.70;;;;;;;6.09;75.93;98219.31;4994927;28;20049;-42
2024/03/31 06:45:25;;;;;;;12.55;4.85;;;;;;;6.10;75.84;98217.56;4993756;28;20522;-41
2024/03/31 06:47:50;;;;;;;34.00;7.95;;;;;;;6.10;76.05;98220.13;5005886;28;20058;-39
2024/03/31 06:50:16;;;;;;;28.65;4.68;;;;;;;6.13;76.05;98217.53;4990472;28;20050;-44
2024/03/31 06:52:41;;;;;;;33.40;5.13;;;;;;;6.16;76.33;98226.06;4994871;28;20046;-41
2024/03/31 06:55:07;;;;;;;28.08;6.03;;;;;;;6.21;75.31;98227.72;4997898;28;20499;-42
2024/03/31 06:57:33;;;;;;;23.15;5.95;;;;;;;6.21;76.17;98223.41;4974564;28;20200;-39
2024/03/31 06:59:58;;;;;;;27.83;7.88;;;;;;;6.23;76.66;98221.66;4998007;28;20080;-41
2024/03/31 07:02:24;;;;;;;16.38;5.13;;;;;;;6.26;76.74;98215.63;4991408;28;20427;-41
2024/03/31 07:04:49;;;;;;;25.23;5.50;;;;;;;6.28;76.29;98216.44;4997193;28;20058;-40
2024/03/31 07:07:15;;;;;;;41.88;7.07;;;;;;;6.32;76.44;98220.69;4989322;28;20038;-39
2024/03/31 07:09:41;;;;;;;22.70;4.57;;;;;;;6.36;76.50;98216.34;4996490;28;20546;-39
2024/03/31 07:12:07;;;;;;;56.13;8.07;;;;;;;6.42;75.91;98222.22;4990092;28;20371;-41
2024/03/31 07:14:32;;;;;;;19.55;7.15;;;;;;;6.47;77.29;98224.75;5001261;28;20064;-42
2024/03/31 07:17:01;;;;;;;34.13;5.25;;;;;;;6.50;76.82;98223.84;4994498;28;20049;-42
2024/03/31 07:19:27;;;;;;;35.13;7.57;;;;;;;6.55;76.74;98222.03;4987883;28;20112;-40
2024/03/31 07:21:53;;;;;;;42.83;7.30;;;;;;;6.57;76.65;98217.72;5002307;28;20510;-40
2024/03/31 07:24:18;;;;;;;44.00;7.05;;;;;;;6.61;77.32;98216.81;4986210;28;20057;-42
2024/03/31 07:26:44;;;;;;;42.35;8.55;;;;;;;6.64;76.75;98219.34;4991566;28;20120;-41
2024/03/31 07:29:10;;;;;;;40.60;5.43;;;;;;;6.68;75.75;98205.53;4996482;28;20057;-43
2024/03/31 07:31:35;;;;;;;25.13;7.25;;;;;;;6.74;76.40;98201.16;4997125;28;20046;-40
2024/03/31 07:34:03;;;;;;;53.15;6.82;;;;;;;6.80;76.78;98206.22;4998025;28;20037;-41
2024/03/31 07:36:29;;;;;;;52.70;5.82;;;;;;;6.85;76.60;98208.72;4989098;28;20096;-42
2024/03/31 07:38:55;;;;;;;29.73;5.63;;;;;;;6.89;77.85;98208.63;4996959;28;20039;-43
2024/03/31 07:41:20;;;;;;;36.42;6.65;;;;;;;6.92;77.04;98195.69;4989172;28;20054;-42
2024/03/31 07:43:46;;;;;;;29.02;6.60;;;;;;;6.96;76.85;98201.66;4998237;28;20465;-41
2024/03/31 07:46:12;;;;;;;63.22;6.35;;;;;;;7.00;76.79;98205.88;4996610;28;20054;-41
2024/03/31 07:48:37;;;;;;;49.38;8.05;;;;;;;7.04;77.23;98206.66;4987744;28;20062;-40
2024/03/31 07:51:04;;;;;;;22.60;6.78;;;;;;;7.05;77.68;98204.06;4988194;28;20096;-43
2024/03/31 07:53:29;;;;;;;32.55;8.10;;;;;;;7.09;76.66;98202.25;4997904;28;20419;-42
2024/03/31 07:55:56;;;;;;;40.58;8.50;;;;;;;7.13;78.62;98203.91;4985092;28;20042;-41
2024/03/31 07:58:22;;;;;;;42.70;8.43;;;;;;;7.19;78.16;98198.66;4987195;28;20404;-42
2024/03/31 08:00:48;;;;;;;35.63;8.13;;;;;;;7.25;78.00;98199.41;4994839;28;20133;-41
2024/03/31 08:03:13;;;;;;;58.55;7.40;;;;;;;7.26;78.07;98195.97;4996538;28;20139;-44
2024/03/31 08:05:39;;;;;;;38.95;7.28;;;;;;;7.27;79.27;98200.22;4999210;28;20553;-41
2024/03/31 08:08:05;;;;;;;27.83;9.77;;;;;;;7.36;79.00;98194.88;5004669;28;20535;-43
2024/03/31 08:10:31;;;;;;;25.85;6.78;;;;;;;7.44;78.55;98198.16;5000509;28;20081;-45
2024/03/31 08:13:01;;;;;;;23.52;7.00;;;;;;;7.51;79.20;98190.31;4991679;28;20104;-43
2024/03/31 08:15:27;;;;;;;33.08;9.90;;;;;;;7.63;77.77;98192.63;4992054;28;20054;-46
2024/03/31 08:17:54;;;;;;;32.08;9.68;;;;;;;7.76;78.92;98177.78;4999182;28;20050;-48
2024/03/31 08:20:19;;;;;;;26.08;7.38;;;;;;;7.93;79.09;98182.56;5002372;28;20112;-45
2024/03/31 08:22:45;;;;;;;27.42;9.13;;;;;;;8.10;78.89;98181.34;4996957;28;20050;-42
2024/03/31 08:25:11;;;;;;;37.47;9.23;;;;;;;8.42;78.10;98186.63;4998405;28;20104;-50
2024/03/31 08:27:36;;;;;;;43.22;9.18;;;;;;;8.89;77.97;98176.06;5000920;28;20041;-43
2024/03/31 08:30:02;;;;;;;33.30;9.70;;;;;;;9.32;76.91;98178.38;4995063;28;20046;-42
2024/03/31 08:32:28;;;;;;;17.80;5.28;;;;;;;9.38;76.99;98173.00;4997074;28;20081;-43
2024/03/31 08:34:53;;;;;;;20.60;5.95;;;;;;;9.33;76.63;98180.06;5001948;28;20082;-41
2024/03/31 08:37:19;;;;;;;20.50;6.20;;;;;;;9.33;76.27;98180.91;4997316;28;20050;-42
2024/03/31 08:39:46;;;;;;;25.27;8.73;;;;;;;9.33;76.28;98180.06;4993935;28;20525;-43
2024/03/31 08:44:50;;;;;;;20.33;6.97;;;;;;;9.30;75.93;98174.97;5051335;28;20407;-43
2024/03/31 08:47:24;;;;;;;15.93;6.47;;;;;;;9.25;76.04;98172.50;5023629;28;20430;-42
2024/03/31 08:49:50;;;;;;;20.42;6.57;;;;;;;9.19;75.91;98173.50;5021733;28;20042;-42
2024/03/31 08:52:16;;;;;;;19.73;7.18;;;;;;;9.16;75.93;98183.97;5023005;28;20049;-43
2024/03/31 08:54:43;;;;;;;20.27;6.60;;;;;;;9.12;76.01;98178.00;5022885;28;20050;-42
2024/03/31 08:57:08;;;;;;;14.63;5.10;;;;;;;9.11;75.96;98180.63;5022768;28;20048;-42
2024/03/31 08:59:34;;;;;;;20.75;7.15;;;;;;;9.10;75.83;98184.09;5020025;28;20062;-44
2024/03/31 09:02:00;;;;;;;18.52;5.72;;;;;;;9.07;75.99;98181.59;5022356;28;20569;-42
2024/03/31 09:04:26;;;;;;;18.70;6.20;;;;;;;9.01;76.13;98177.44;5022502;28;20042;-42
2024/03/31 09:06:52;;;;;;;15.50;6.28;;;;;;;8.94;76.65;98181.94;5022823;28;20041;-42
2024/03/31 09:09:22;;;;;;;13.60;5.80;;;;;;;8.84;76.66;98173.56;5022521;28;20116;-45
2024/03/31 09:11:48;;;;;;;18.88;5.97;;;;;;;8.82;76.77;98190.00;5022036;28;20654;-42
2024/03/31 09:14:14;;;;;;;16.08;6.85;;;;;;;8.78;76.54;98183.22;5022028;28;20049;-42
2024/03/31 09:16:46;;;;;;;16.50;7.30;;;;;;;8.73;76.09;98179.03;5022395;28;20128;-43
2024/03/31 09:19:12;;;;;;;14.20;5.72;;;;;;;8.80;76.53;98181.44;5021729;28;20057;-42
2024/03/31 09:21:46;;;;;;;15.82;6.68;;;;;;;8.96;76.08;98185.34;5021668;28;20057;-41
2024/03/31 09:24:13;;;;;;;18.58;6.95;;;;;;;9.05;76.02;98167.91;5013154;28;20049;-43
2024/03/31 09:26:40;;;;;;;21.05;7.78;;;;;;;9.19;75.46;98173.50;5025693;28;20052;-42
2024/03/31 09:29:05;;;;;;;16.85;6.88;;;;;;;9.31;75.24;98179.22;5036173;28;20053;-41
2024/03/31 09:31:31;;;;;;;15.13;6.15;;;;;;;9.34;75.09;98176.56;5025390;28;20164;-42
2024/03/31 09:33:57;;;;;;;17.00;6.78;;;;;;;9.38;75.04;98184.22;5033617;28;20453;-41
2024/03/31 09:36:22;;;;;;;14.98;6.45;;;;;;;9.40;74.64;98176.41;5040045;28;20049;-41
2024/03/31 09:38:48;;;;;;;15.43;6.20;;;;;;;9.42;74.85;98176.38;5024874;28;20514;-44
2024/03/31 09:41:14;;;;;;;17.90;6.90;;;;;;;9.45;74.68;98177.13;5042406;28;20076;-41
2024/03/31 09:43:40;;;;;;;16.05;7.15;;;;;;;9.47;74.47;98172.78;5039170;28;20057;-42
2024/03/31 09:46:07;;;;;;;13.15;5.78;;;;;;;9.48;74.48;98174.44;5041575;28;20059;-41
2024/03/31 09:48:39;;;;;;;16.00;6.95;;;;;;;9.47;73.71;98162.44;5041617;28;20041;-43
2024/03/31 09:51:13;;;;;;;13.90;6.50;;;;;;;9.44;74.11;98162.50;5038891;28;20074;-42
2024/03/31 09:53:42;;;;;;;13.40;5.07;;;;;;;9.47;74.07;98159.00;5021342;28;20053;-41
2024/03/31 09:56:10;;;;;;;14.05;5.53;;;;;;;9.52;74.55;98160.56;5021682;28;20108;-40
2024/03/31 09:58:37;;;;;;;15.32;5.97;;;;;;;9.64;74.14;98168.84;5027978;28;20076;-41
2024/03/31 10:01:06;;;;;;;14.15;5.45;;;;;;;9.72;73.73;98156.53;5025638;28;20124;-40
2024/03/31 10:03:40;;;;;;;12.23;5.75;;;;;;;9.77;73.45;98159.81;5027433;28;20045;-42
2024/03/31 10:06:08;;;;;;;12.38;5.40;;;;;;;9.79;73.82;98143.44;5028653;28;20052;-41
2024/03/31 10:08:34;;;;;;;14.52;5.78;;;;;;;9.81;73.81;98147.66;5027967;28;20057;-40
2024/03/31 10:11:01;;;;;;;11.50;5.57;;;;;;;9.72;73.41;98148.78;5024570;28;20057;-41
2024/03/31 10:13:27;;;;;;;11.38;5.22;;;;;;;9.71;73.56;98143.66;5011450;28;20045;-46
2024/03/31 10:15:55;;;;;;;13.30;5.18;;;;;;;9.76;73.51;98137.44;5027890;28;20096;-41
2024/03/31 10:18:24;;;;;;;13.95;6.05;;;;;;;9.75;73.84;98143.53;5011762;28;20053;-40
2024/03/31 10:20:51;;;;;;;12.68;6.13;;;;;;;9.86;73.46;98142.38;5026888;28;20053;-40
2024/03/31 10:23:19;;;;;;;14.25;6.05;;;;;;;9.92;73.25;98131.81;5028597;28;20080;-44
2024/03/31 10:25:46;;;;;;;13.63;5.88;;;;;;;9.94;73.11;98135.22;5028053;28;20049;-43
2024/03/31 10:28:13;;;;;;;13.13;5.57;;;;;;;9.93;73.37;98130.91;5027651;28;20049;-42
2024/03/31 10:30:39;;;;;;;15.63;6.03;;;;;;;9.98;73.21;98133.34;5011298;28;20064;-42
2024/03/31 10:33:05;;;;;;;10.55;6.15;;;;;;;9.94;73.23;98135.22;5027791;28;20045;-41
2024/03/31 10:35:33;;;;;;;14.27;5.70;;;;;;;9.95;73.64;98131.72;5027800;28;20410;-41
2024/03/31 10:37:59;;;;;;;13.70;5.75;;;;;;;9.95;73.15;98129.13;5005417;28;20050;-40
2024/03/31 10:40:26;;;;;;;11.90;4.80;;;;;;;9.95;73.36;98131.72;5055601;28;20045;-42
2024/03/31 10:42:56;;;;;;;11.55;5.65;;;;;;;9.89;73.29;98132.75;5015583;28;20046;-40
2024/03/31 10:45:24;;;;;;;14.63;7.07;;;;;;;9.92;72.81;98125.81;5024047;28;20056;-41
2024/03/31 10:47:50;;;;;;;11.82;5.38;;;;;;;9.95;73.51;98131.72;4991430;28;20057;-43
2024/03/31 10:50:16;;;;;;;12.48;5.63;;;;;;;9.94;73.55;98121.41;5005345;28;20054;-44
2024/03/31 10:52:42;;;;;;;10.43;4.72;;;;;;;9.90;72.92;98113.75;5005993;28;20111;-40
2024/03/31 10:55:09;;;;;;;9.43;5.20;;;;;;;9.94;72.83;98124.00;5004557;28;20414;-42
2024/03/31 11:00:18;;;;;;;9.70;4.70;;;;;;;9.90;73.53;98118.94;5044152;28;20730;-42
2024/03/31 11:02:46;;;;;;;11.23;5.35;;;;;;;9.95;73.49;98116.22;5009987;28;20089;-42
2024/03/31 11:05:12;;;;;;;10.00;4.93;;;;;;;10.03;72.93;98118.53;4986347;28;20130;-41
2024/03/31 11:07:41;;;;;;;13.02;5.35;;;;;;;10.10;73.40;98116.63;4986732;28;20498;-43
2024/03/31 11:10:08;;;;;;;9.55;4.38;;;;;;;10.17;73.43;98110.34;5010701;28;20057;-43
2024/03/31 11:12:35;;;;;;;8.65;4.15;;;;;;;10.23;72.55;98110.13;4991694;28;20058;-46
2024/03/31 11:15:01;;;;;;;11.38;5.28;;;;;;;10.35;73.02;98106.31;4994484;28;20421;-41
2024/03/31 11:17:30;;;;;;;12.07;5.15;;;;;;;10.48;72.07;98101.63;5015495;28;20057;-43
2024/03/31 11:19:58;;;;;;;9.57;4.70;;;;;;;10.63;72.23;98101.97;4994526;28;20045;-42
2024/03/31 11:22:25;;;;;;;8.65;4.35;;;;;;;10.67;72.08;98088.00;4991292;28;20054;-44
2024/03/31 11:24:51;;;;;;;9.45;3.67;;;;;;;10.73;72.33;98086.97;5014226;28;20511;-44
2024/03/31 11:27:18;;;;;;;8.35;3.47;;;;;;;10.73;72.19;98086.97;4987683;28;20073;-41
2024/03/31 11:29:44;;;;;;;6.72;2.58;;;;;;;10.74;71.83;98084.31;4987601;28;20463;-41
2024/03/31 11:32:11;;;;;;;5.20;3.15;;;;;;;10.70;71.32;98079.31;4991980;28;20105;-44
2024/03/31 11:34:38;;;;;;;6.45;2.88;;;;;;;10.67;71.13;98082.84;4988495;28;20400;-42
2024/03/31 11:37:05;;;;;;;6.78;3.20;;;;;;;10.72;71.85;98086.13;4965283;28;20050;-43